sensor_id;sensor_type;location;lat;lon;timestamp;temperature;humidity
16958;DHT22;8595;52.542;11.974;2023-11-21T00:01:04;9.10;99.90
16958;DHT22;8595;52.542;11.974;2023-11-21T00:03:34;9.10;99.90
16958;DHT22;8595;52.542;11.974;2023-11-21T00:06:01;9.20;99.90
16958;DHT22;8595;52.542;11.974;2023-11-21T00:08:28;9.20;99.90
16958;DHT22;8595;52.542;11.974;2023-11-21T00:10:55;9.30;99.90
16958;DHT22;8595;52.542;11.974;2023-11-21T00:13:21;9.20;99.90
16958;DHT22;8595;52.542;11.974;2023-11-21T00:15:48;9.20;99.90
16958;DHT22;8595;52.542;11.974;2023-11-21T00:18:16;9.20;99.90
16958;DHT22;8595;52.542;11.974;2023-11-21T00:20:43;9.30;99.90
16958;DHT22;8595;52.542;11.974;2023-11-21T00:23:10;9.30;99.90
16958;DHT22;8595;52.542;11.974;2023-11-21T00:25:37;9.40;99.90
16958;DHT22;8595;52.542;11.974;2023-11-21T00:28:03;9.40;99.90
16958;DHT22;8595;52.542;11.974;2023-11-21T00:30:31;9.40;99.90
16958;DHT22;8595;52.542;11.974;2023-11-21T00:32:59;9.50;99.90
16958;DHT22;8595;52.542;11.974;2023-11-21T00:35:27;9.50;99.90
16958;DHT22;8595;52.542;11.974;2023-11-21T00:37:54;9.60;99.90
16958;DHT22;8595;52.542;11.974;2023-11-21T00:40:21;9.60;99.90
16958;DHT22;8595;52.542;11.974;2023-11-21T00:42:48;9.50;99.90
16958;DHT22;8595;52.542;11.974;2023-11-21T00:45:15;9.40;99.90
16958;DHT22;8595;52.542;11.974;2023-11-21T00:47:42;9.40;99.90
16958;DHT22;8595;52.542;11.974;2023-11-21T00:50:09;9.40;99.90
16958;DHT22;8595;52.542;11.974;2023-11-21T00:52:37;9.30;99.90
16958;DHT22;8595;52.542;11.974;2023-11-21T00:55:04;9.20;99.90
16958;DHT22;8595;52.542;11.974;2023-11-21T00:57:33;9.30;99.90
16958;DHT22;8595;52.542;11.974;2023-11-21T00:59:59;9.20;99.90
16958;DHT22;8595;52.542;11.974;2023-11-21T01:02:26;9.30;99.90
16958;DHT22;8595;52.542;11.974;2023-11-21T01:04:53;9.30;99.90
16958;DHT22;8595;52.542;11.974;2023-11-21T01:07:19;9.30;99.90
16958;DHT22;8595;52.542;11.974;2023-11-21T01:09:48;9.30;99.90
16958;DHT22;8595;52.542;11.974;2023-11-21T01:12:14;9.30;99.90
16958;DHT22;8595;52.542;11.974;2023-11-21T01:14:43;9.40;99.90
16958;DHT22;8595;52.542;11.974;2023-11-21T01:17:10;9.30;99.90
16958;DHT22;8595;52.542;11.974;2023-11-21T01:19:37;9.40;99.90
16958;DHT22;8595;52.542;11.974;2023-11-21T01:22:04;9.30;99.90
16958;DHT22;8595;52.542;11.974;2023-11-21T01:24:30;9.30;99.90
16958;DHT22;8595;52.542;11.974;2023-11-21T01:26:58;9.20;99.90
16958;DHT22;8595;52.542;11.974;2023-11-21T01:29:25;9.20;99.90
16958;DHT22;8595;52.542;11.974;2023-11-21T01:31:53;9.10;99.90
16958;DHT22;8595;52.542;11.974;2023-11-21T01:34:20;9.10;99.90
16958;DHT22;8595;52.542;11.974;2023-11-21T01:36:46;9.10;99.90
16958;DHT22;8595;52.542;11.974;2023-11-21T01:39:13;9.10;99.90
16958;DHT22;8595;52.542;11.974;2023-11-21T01:41:43;9.10;99.90
16958;DHT22;8595;52.542;11.974;2023-11-21T01:44:11;9.10;99.90
16958;DHT22;8595;52.542;11.974;2023-11-21T01:46:38;9.10;99.90
16958;DHT22;8595;52.542;11.974;2023-11-21T01:49:05;9.10;99.90
16958;DHT22;8595;52.542;11.974;2023-11-21T01:51:32;9.10;99.90
16958;DHT22;8595;52.542;11.974;2023-11-21T01:53:59;9.10;99.90
16958;DHT22;8595;52.542;11.974;2023-11-21T01:56:26;9.10;99.90
16958;DHT22;8595;52.542;11.974;2023-11-21T01:58:56;9.00;99.90
16958;DHT22;8595;52.542;11.974;2023-11-21T02:01:24;9.00;99.90
16958;DHT22;8595;52.542;11.974;2023-11-21T02:03:51;8.90;99.90
16958;DHT22;8595;52.542;11.974;2023-11-21T02:06:18;8.80;99.90
16958;DHT22;8595;52.542;11.974;2023-11-21T02:08:45;8.80;99.90
16958;DHT22;8595;52.542;11.974;2023-11-21T02:11:12;8.80;99.90
16958;DHT22;8595;52.542;11.974;2023-11-21T02:13:39;8.70;99.90
16958;DHT22;8595;52.542;11.974;2023-11-21T02:16:09;8.50;99.90
16958;DHT22;8595;52.542;11.974;2023-11-21T02:18:37;8.50;99.90
16958;DHT22;8595;52.542;11.974;2023-11-21T02:21:04;8.60;99.90
16958;DHT22;8595;52.542;11.974;2023-11-21T02:23:33;8.50;99.90
16958;DHT22;8595;52.542;11.974;2023-11-21T02:26:00;8.50;99.90
16958;DHT22;8595;52.542;11.974;2023-11-21T02:28:29;8.60;99.90
16958;DHT22;8595;52.542;11.974;2023-11-21T02:30:56;8.60;99.90
16958;DHT22;8595;52.542;11.974;2023-11-21T02:33:24;8.70;99.90
16958;DHT22;8595;52.542;11.974;2023-11-21T02:35:51;8.70;99.90
16958;DHT22;8595;52.542;11.974;2023-11-21T02:38:20;8.60;99.90
16958;DHT22;8595;52.542;11.974;2023-11-21T02:40:48;8.60;99.90
16958;DHT22;8595;52.542;11.974;2023-11-21T02:43:15;8.60;99.90
16958;DHT22;8595;52.542;11.974;2023-11-21T02:45:42;8.60;99.90
16958;DHT22;8595;52.542;11.974;2023-11-21T02:48:08;8.60;99.90
16958;DHT22;8595;52.542;11.974;2023-11-21T02:50:35;8.60;99.90
16958;DHT22;8595;52.542;11.974;2023-11-21T02:53:02;8.50;99.90
16958;DHT22;8595;52.542;11.974;2023-11-21T02:55:31;8.50;99.90
16958;DHT22;8595;52.542;11.974;2023-11-21T02:58:01;8.50;99.90
16958;DHT22;8595;52.542;11.974;2023-11-21T03:00:29;8.60;99.90
16958;DHT22;8595;52.542;11.974;2023-11-21T03:02:56;8.50;99.90
16958;DHT22;8595;52.542;11.974;2023-11-21T03:05:22;8.50;99.90
16958;DHT22;8595;52.542;11.974;2023-11-21T03:07:49;8.30;99.90
16958;DHT22;8595;52.542;11.974;2023-11-21T03:10:16;8.40;99.90
16958;DHT22;8595;52.542;11.974;2023-11-21T03:12:42;8.40;99.90
16958;DHT22;8595;52.542;11.974;2023-11-21T03:15:11;8.40;99.90
16958;DHT22;8595;52.542;11.974;2023-11-21T03:17:38;8.30;99.90
16958;DHT22;8595;52.542;11.974;2023-11-21T03:20:05;8.30;99.90
16958;DHT22;8595;52.542;11.974;2023-11-21T03:22:36;8.20;99.90
16958;DHT22;8595;52.542;11.974;2023-11-21T03:25:03;8.20;99.90
16958;DHT22;8595;52.542;11.974;2023-11-21T03:27:30;8.20;99.90
16958;DHT22;8595;52.542;11.974;2023-11-21T03:29:57;8.20;99.90
16958;DHT22;8595;52.542;11.974;2023-11-21T03:32:25;8.30;99.90
16958;DHT22;8595;52.542;11.974;2023-11-21T03:34:55;8.20;99.90
16958;DHT22;8595;52.542;11.974;2023-11-21T03:37:23;8.30;99.90
16958;DHT22;8595;52.542;11.974;2023-11-21T03:39:50;8.20;99.90
16958;DHT22;8595;52.542;11.974;2023-11-21T03:42:17;8.30;99.90
16958;DHT22;8595;52.542;11.974;2023-11-21T03:44:43;8.30;99.90
16958;DHT22;8595;52.542;11.974;2023-11-21T03:47:10;8.20;99.90
16958;DHT22;8595;52.542;11.974;2023-11-21T03:49:38;8.20;99.90
16958;DHT22;8595;52.542;11.974;2023-11-21T03:52:06;8.20;99.90
16958;DHT22;8595;52.542;11.974;2023-11-21T03:54:34;8.20;99.90
16958;DHT22;8595;52.542;11.974;2023-11-21T03:57:01;8.20;99.90
16958;DHT22;8595;52.542;11.974;2023-11-21T03:59:28;8.10;99.90
16958;DHT22;8595;52.542;11.974;2023-11-21T04:01:55;8.10;99.90
16958;DHT22;8595;52.542;11.974;2023-11-21T04:04:22;8.00;99.90
16958;DHT22;8595;52.542;11.974;2023-11-21T04:06:50;8.10;99.90
16958;DHT22;8595;52.542;11.974;2023-11-21T04:09:18;8.10;99.90
16958;DHT22;8595;52.542;11.974;2023-11-21T04:11:45;8.10;99.90
16958;DHT22;8595;52.542;11.974;2023-11-21T04:14:12;8.10;99.90
16958;DHT22;8595;52.542;11.974;2023-11-21T04:16:38;8.10;99.90
16958;DHT22;8595;52.542;11.974;2023-11-21T04:19:05;8.20;99.90
16958;DHT22;8595;52.542;11.974;2023-11-21T04:21:32;8.10;99.90
16958;DHT22;8595;52.542;11.974;2023-11-21T04:24:00;8.10;99.90
16958;DHT22;8595;52.542;11.974;2023-11-21T04:26:27;7.90;99.90
16958;DHT22;8595;52.542;11.974;2023-11-21T04:28:54;8.00;99.90
16958;DHT22;8595;52.542;11.974;2023-11-21T04:31:21;8.10;99.90
16958;DHT22;8595;52.542;11.974;2023-11-21T04:33:47;8.10;99.90
16958;DHT22;8595;52.542;11.974;2023-11-21T04:36:14;8.00;99.90
16958;DHT22;8595;52.542;11.974;2023-11-21T04:38:41;7.90;99.90
16958;DHT22;8595;52.542;11.974;2023-11-21T04:41:09;7.80;99.90
16958;DHT22;8595;52.542;11.974;2023-11-21T04:43:35;7.90;99.90
16958;DHT22;8595;52.542;11.974;2023-11-21T04:46:02;7.80;99.90
16958;DHT22;8595;52.542;11.974;2023-11-21T04:48:29;7.70;99.90
16958;DHT22;8595;52.542;11.974;2023-11-21T04:50:56;7.70;99.90
16958;DHT22;8595;52.542;11.974;2023-11-21T04:53:22;7.60;99.90
16958;DHT22;8595;52.542;11.974;2023-11-21T04:55:49;7.60;99.90
16958;DHT22;8595;52.542;11.974;2023-11-21T04:58:17;7.60;99.90
16958;DHT22;8595;52.542;11.974;2023-11-21T05:00:46;7.70;99.90
16958;DHT22;8595;52.542;11.974;2023-11-21T05:03:12;7.60;99.90
16958;DHT22;8595;52.542;11.974;2023-11-21T05:05:39;7.60;99.90
16958;DHT22;8595;52.542;11.974;2023-11-21T05:08:06;7.70;99.90
16958;DHT22;8595;52.542;11.974;2023-11-21T05:10:33;7.60;99.90
16958;DHT22;8595;52.542;11.974;2023-11-21T05:13:03;7.60;99.90
16958;DHT22;8595;52.542;11.974;2023-11-21T05:15:31;7.70;99.90
16958;DHT22;8595;52.542;11.974;2023-11-21T05:17:58;7.70;99.90
16958;DHT22;8595;52.542;11.974;2023-11-21T05:20:25;7.80;99.90
16958;DHT22;8595;52.542;11.974;2023-11-21T05:22:52;7.80;99.90
16958;DHT22;8595;52.542;11.974;2023-11-21T05:25:19;7.90;99.90
16958;DHT22;8595;52.542;11.974;2023-11-21T05:27:45;7.90;99.90
16958;DHT22;8595;52.542;11.974;2023-11-21T05:30:13;7.80;99.90
16958;DHT22;8595;52.542;11.974;2023-11-21T05:32:41;7.80;99.90
16958;DHT22;8595;52.542;11.974;2023-11-21T05:35:08;7.70;99.90
16958;DHT22;8595;52.542;11.974;2023-11-21T05:37:39;7.60;99.90
16958;DHT22;8595;52.542;11.974;2023-11-21T05:40:07;7.50;99.90
16958;DHT22;8595;52.542;11.974;2023-11-21T05:42:34;7.50;99.90
16958;DHT22;8595;52.542;11.974;2023-11-21T05:45:01;7.50;99.90
16958;DHT22;8595;52.542;11.974;2023-11-21T05:47:36;7.60;99.90
16958;DHT22;8595;52.542;11.974;2023-11-21T05:50:05;7.60;99.90
16958;DHT22;8595;52.542;11.974;2023-11-21T05:52:35;7.50;99.90
16958;DHT22;8595;52.542;11.974;2023-11-21T05:55:02;7.50;99.90
16958;DHT22;8595;52.542;11.974;2023-11-21T05:57:30;7.40;99.90
16958;DHT22;8595;52.542;11.974;2023-11-21T05:59:57;7.40;99.90
16958;DHT22;8595;52.542;11.974;2023-11-21T06:02:23;7.40;99.90
16958;DHT22;8595;52.542;11.974;2023-11-21T06:04:51;7.40;99.90
16958;DHT22;8595;52.542;11.974;2023-11-21T06:07:19;7.30;99.90
16958;DHT22;8595;52.542;11.974;2023-11-21T06:09:45;7.30;99.90
16958;DHT22;8595;52.542;11.974;2023-11-21T06:12:14;7.30;99.90
16958;DHT22;8595;52.542;11.974;2023-11-21T06:14:41;7.40;99.90
16958;DHT22;8595;52.542;11.974;2023-11-21T06:17:08;7.40;99.90
16958;DHT22;8595;52.542;11.974;2023-11-21T06:19:37;7.40;99.90
16958;DHT22;8595;52.542;11.974;2023-11-21T06:22:06;7.40;99.90
16958;DHT22;8595;52.542;11.974;2023-11-21T06:24:37;7.30;99.90
16958;DHT22;8595;52.542;11.974;2023-11-21T06:27:04;7.40;99.90
16958;DHT22;8595;52.542;11.974;2023-11-21T06:29:31;7.40;99.90
16958;DHT22;8595;52.542;11.974;2023-11-21T06:31:58;7.30;99.90
16958;DHT22;8595;52.542;11.974;2023-11-21T06:34:25;7.30;99.90
16958;DHT22;8595;52.542;11.974;2023-11-21T06:36:53;7.20;99.90
16958;DHT22;8595;52.542;11.974;2023-11-21T06:39:19;7.20;99.90
16958;DHT22;8595;52.542;11.974;2023-11-21T06:41:49;7.20;99.90
16958;DHT22;8595;52.542;11.974;2023-11-21T06:44:16;7.30;99.90
16958;DHT22;8595;52.542;11.974;2023-11-21T06:46:42;7.30;99.90
16958;DHT22;8595;52.542;11.974;2023-11-21T06:49:10;7.20;99.90
16958;DHT22;8595;52.542;11.974;2023-11-21T06:51:37;7.20;99.90
16958;DHT22;8595;52.542;11.974;2023-11-21T06:57:27;7.10;99.90
16958;DHT22;8595;52.542;11.974;2023-11-21T06:59:54;6.90;99.90
16958;DHT22;8595;52.542;11.974;2023-11-21T07:02:22;6.90;99.90
16958;DHT22;8595;52.542;11.974;2023-11-21T07:04:49;6.90;99.90
16958;DHT22;8595;52.542;11.974;2023-11-21T07:07:16;6.80;99.90
16958;DHT22;8595;52.542;11.974;2023-11-21T07:09:42;6.70;99.90
16958;DHT22;8595;52.542;11.974;2023-11-21T07:12:09;6.60;99.90
16958;DHT22;8595;52.542;11.974;2023-11-21T07:14:37;6.50;99.90
16958;DHT22;8595;52.542;11.974;2023-11-21T07:17:06;6.50;99.90
16958;DHT22;8595;52.542;11.974;2023-11-21T07:19:33;6.50;99.90
16958;DHT22;8595;52.542;11.974;2023-11-21T07:22:00;6.60;99.90
16958;DHT22;8595;52.542;11.974;2023-11-21T07:24:26;6.60;99.90
16958;DHT22;8595;52.542;11.974;2023-11-21T07:26:53;6.60;99.90
16958;DHT22;8595;52.542;11.974;2023-11-21T07:29:22;6.50;99.90
16958;DHT22;8595;52.542;11.974;2023-11-21T07:31:52;6.50;99.90
16958;DHT22;8595;52.542;11.974;2023-11-21T07:34:19;6.60;99.90
16958;DHT22;8595;52.542;11.974;2023-11-21T07:36:46;6.60;99.90
16958;DHT22;8595;52.542;11.974;2023-11-21T07:39:13;6.60;99.90
16958;DHT22;8595;52.542;11.974;2023-11-21T07:41:41;6.70;99.90
16958;DHT22;8595;52.542;11.974;2023-11-21T07:44:14;6.70;99.90
16958;DHT22;8595;52.542;11.974;2023-11-21T07:46:41;6.60;99.90
16958;DHT22;8595;52.542;11.974;2023-11-21T07:49:09;6.60;99.90
16958;DHT22;8595;52.542;11.974;2023-11-21T07:51:35;6.60;99.90
16958;DHT22;8595;52.542;11.974;2023-11-21T07:54:02;6.60;99.90
16958;DHT22;8595;52.542;11.974;2023-11-21T07:56:29;6.70;99.90
16958;DHT22;8595;52.542;11.974;2023-11-21T07:58:56;6.60;99.90
16958;DHT22;8595;52.542;11.974;2023-11-21T08:01:22;6.70;99.90
16958;DHT22;8595;52.542;11.974;2023-11-21T08:03:49;6.80;99.90
16958;DHT22;8595;52.542;11.974;2023-11-21T08:06:19;6.80;99.90
16958;DHT22;8595;52.542;11.974;2023-11-21T08:08:45;6.70;99.90
16958;DHT22;8595;52.542;11.974;2023-11-21T08:11:12;6.70;99.90
16958;DHT22;8595;52.542;11.974;2023-11-21T08:13:39;6.70;99.90
16958;DHT22;8595;52.542;11.974;2023-11-21T08:16:07;6.70;99.90
16958;DHT22;8595;52.542;11.974;2023-11-21T08:18:34;6.60;99.90
16958;DHT22;8595;52.542;11.974;2023-11-21T08:21:01;6.50;99.90
16958;DHT22;8595;52.542;11.974;2023-11-21T08:23:30;6.50;99.90
16958;DHT22;8595;52.542;11.974;2023-11-21T08:25:56;6.40;99.90
16958;DHT22;8595;52.542;11.974;2023-11-21T08:28:23;6.40;99.90
16958;DHT22;8595;52.542;11.974;2023-11-21T08:30:51;6.30;99.90
16958;DHT22;8595;52.542;11.974;2023-11-21T08:33:18;6.30;99.90
16958;DHT22;8595;52.542;11.974;2023-11-21T08:35:45;6.50;99.90
16958;DHT22;8595;52.542;11.974;2023-11-21T08:38:12;6.40;99.90
16958;DHT22;8595;52.542;11.974;2023-11-21T08:40:41;6.40;99.90
16958;DHT22;8595;52.542;11.974;2023-11-21T08:43:07;6.40;99.90
16958;DHT22;8595;52.542;11.974;2023-11-21T08:45:34;6.50;99.90
16958;DHT22;8595;52.542;11.974;2023-11-21T08:48:01;6.40;99.90
16958;DHT22;8595;52.542;11.974;2023-11-21T08:50:28;6.50;99.90
16958;DHT22;8595;52.542;11.974;2023-11-21T08:52:55;6.50;99.90
16958;DHT22;8595;52.542;11.974;2023-11-21T08:55:22;6.60;99.90
16958;DHT22;8595;52.542;11.974;2023-11-21T08:57:50;6.70;99.90
16958;DHT22;8595;52.542;11.974;2023-11-21T09:00:17;6.70;99.90
16958;DHT22;8595;52.542;11.974;2023-11-21T09:02:44;6.70;99.90
16958;DHT22;8595;52.542;11.974;2023-11-21T09:05:12;6.70;99.90
16958;DHT22;8595;52.542;11.974;2023-11-21T09:07:40;6.80;99.90
16958;DHT22;8595;52.542;11.974;2023-11-21T09:10:08;6.70;99.90
16958;DHT22;8595;52.542;11.974;2023-11-21T09:12:35;6.70;99.90
16958;DHT22;8595;52.542;11.974;2023-11-21T09:15:05;6.60;99.90
16958;DHT22;8595;52.542;11.974;2023-11-21T09:17:33;6.70;99.90
16958;DHT22;8595;52.542;11.974;2023-11-21T09:20:00;6.60;99.90
16958;DHT22;8595;52.542;11.974;2023-11-21T09:22:29;6.50;99.90
16958;DHT22;8595;52.542;11.974;2023-11-21T09:24:57;6.60;99.90
16958;DHT22;8595;52.542;11.974;2023-11-21T09:27:24;6.70;99.90
16958;DHT22;8595;52.542;11.974;2023-11-21T09:29:51;6.70;99.90
16958;DHT22;8595;52.542;11.974;2023-11-21T09:32:20;6.70;99.90
16958;DHT22;8595;52.542;11.974;2023-11-21T09:34:47;6.70;99.90
16958;DHT22;8595;52.542;11.974;2023-11-21T09:37:14;6.80;99.90
16958;DHT22;8595;52.542;11.974;2023-11-21T09:39:41;6.70;99.90
16958;DHT22;8595;52.542;11.974;2023-11-21T09:42:11;6.80;99.90
16958;DHT22;8595;52.542;11.974;2023-11-21T09:44:45;6.80;99.90
16958;DHT22;8595;52.542;11.974;2023-11-21T09:47:15;6.70;99.90
16958;DHT22;8595;52.542;11.974;2023-11-21T09:49:47;6.60;99.90
16958;DHT22;8595;52.542;11.974;2023-11-21T09:52:18;6.70;99.90
16958;DHT22;8595;52.542;11.974;2023-11-21T09:54:50;6.70;99.90
16958;DHT22;8595;52.542;11.974;2023-11-21T09:57:19;6.60;99.90
16958;DHT22;8595;52.542;11.974;2023-11-21T09:59:47;6.60;99.90
16958;DHT22;8595;52.542;11.974;2023-11-21T10:02:17;6.80;99.90
16958;DHT22;8595;52.542;11.974;2023-11-21T10:04:47;6.80;99.90
16958;DHT22;8595;52.542;11.974;2023-11-21T10:07:17;6.80;99.90
16958;DHT22;8595;52.542;11.974;2023-11-21T10:09:44;6.90;99.90
16958;DHT22;8595;52.542;11.974;2023-11-21T10:12:14;6.80;99.90
16958;DHT22;8595;52.542;11.974;2023-11-21T10:14:42;6.70;99.90
16958;DHT22;8595;52.542;11.974;2023-11-21T10:17:10;6.70;99.90
16958;DHT22;8595;52.542;11.974;2023-11-21T10:19:39;6.70;99.90
16958;DHT22;8595;52.542;11.974;2023-11-21T10:22:07;6.80;99.90
16958;DHT22;8595;52.542;11.974;2023-11-21T10:24:34;6.80;99.90
16958;DHT22;8595;52.542;11.974;2023-11-21T10:27:03;6.90;99.90
16958;DHT22;8595;52.542;11.974;2023-11-21T10:29:29;6.90;99.90
16958;DHT22;8595;52.542;11.974;2023-11-21T10:31:59;6.80;99.90
16958;DHT22;8595;52.542;11.974;2023-11-21T10:34:26;6.80;99.90
16958;DHT22;8595;52.542;11.974;2023-11-21T10:36:53;6.80;99.90
16958;DHT22;8595;52.542;11.974;2023-11-21T10:39:25;6.70;99.90
16958;DHT22;8595;52.542;11.974;2023-11-21T10:41:56;6.80;99.90
16958;DHT22;8595;52.542;11.974;2023-11-21T10:44:23;6.80;99.90
16958;DHT22;8595;52.542;11.974;2023-11-21T10:46:52;6.70;99.90
16958;DHT22;8595;52.542;11.974;2023-11-21T10:49:22;6.70;99.90
16958;DHT22;8595;52.542;11.974;2023-11-21T10:51:50;6.60;99.90
16958;DHT22;8595;52.542;11.974;2023-11-21T10:54:19;6.50;99.90
16958;DHT22;8595;52.542;11.974;2023-11-21T10:56:50;6.60;99.90
16958;DHT22;8595;52.542;11.974;2023-11-21T10:59:18;6.60;99.90
16958;DHT22;8595;52.542;11.974;2023-11-21T11:01:46;6.60;99.90
16958;DHT22;8595;52.542;11.974;2023-11-21T11:04:15;6.70;99.90
16958;DHT22;8595;52.542;11.974;2023-11-21T11:06:44;6.70;99.90
16958;DHT22;8595;52.542;11.974;2023-11-21T11:09:13;6.70;99.90
16958;DHT22;8595;52.542;11.974;2023-11-21T11:11:42;6.60;99.90
16958;DHT22;8595;52.542;11.974;2023-11-21T11:14:12;6.60;99.90
16958;DHT22;8595;52.542;11.974;2023-11-21T11:16:40;6.60;99.90
16958;DHT22;8595;52.542;11.974;2023-11-21T11:19:08;6.50;99.90
16958;DHT22;8595;52.542;11.974;2023-11-21T11:21:43;6.60;99.90
16958;DHT22;8595;52.542;11.974;2023-11-21T11:24:25;6.70;99.90
16958;DHT22;8595;52.542;11.974;2023-11-21T11:27:01;6.70;99.90
16958;DHT22;8595;52.542;11.974;2023-11-21T11:29:34;6.60;99.90
16958;DHT22;8595;52.542;11.974;2023-11-21T11:32:09;6.60;99.90
16958;DHT22;8595;52.542;11.974;2023-11-21T11:34:43;6.60;99.90
16958;DHT22;8595;52.542;11.974;2023-11-21T11:37:12;6.80;99.90
16958;DHT22;8595;52.542;11.974;2023-11-21T11:39:41;6.90;99.90
16958;DHT22;8595;52.542;11.974;2023-11-21T11:42:12;7.10;99.90
16958;DHT22;8595;52.542;11.974;2023-11-21T11:44:52;7.00;99.90
16958;DHT22;8595;52.542;11.974;2023-11-21T11:47:25;7.10;99.90
16958;DHT22;8595;52.542;11.974;2023-11-21T11:49:57;7.30;99.90
16958;DHT22;8595;52.542;11.974;2023-11-21T11:52:38;7.50;99.90
16958;DHT22;8595;52.542;11.974;2023-11-21T11:55:07;7.30;99.90
16958;DHT22;8595;52.542;11.974;2023-11-21T11:57:36;7.40;99.90
16958;DHT22;8595;52.542;11.974;2023-11-21T12:00:15;7.50;99.90
16958;DHT22;8595;52.542;11.974;2023-11-21T12:02:48;7.50;99.90
16958;DHT22;8595;52.542;11.974;2023-11-21T12:05:16;7.50;99.90
16958;DHT22;8595;52.542;11.974;2023-11-21T12:07:44;7.70;99.90
16958;DHT22;8595;52.542;11.974;2023-11-21T12:10:13;7.70;99.90
16958;DHT22;8595;52.542;11.974;2023-11-21T12:12:44;7.70;99.90
16958;DHT22;8595;52.542;11.974;2023-11-21T12:15:13;7.70;99.90
16958;DHT22;8595;52.542;11.974;2023-11-21T12:17:41;7.80;99.90
16958;DHT22;8595;52.542;11.974;2023-11-21T12:20:09;7.90;99.90
16958;DHT22;8595;52.542;11.974;2023-11-21T12:22:45;7.80;99.90
16958;DHT22;8595;52.542;11.974;2023-11-21T12:25:16;7.80;99.90
16958;DHT22;8595;52.542;11.974;2023-11-21T12:27:44;7.90;99.90
16958;DHT22;8595;52.542;11.974;2023-11-21T12:30:13;8.00;99.90
16958;DHT22;8595;52.542;11.974;2023-11-21T12:32:41;8.00;99.90
16958;DHT22;8595;52.542;11.974;2023-11-21T12:35:09;7.90;99.90
16958;DHT22;8595;52.542;11.974;2023-11-21T12:37:36;7.80;99.90
16958;DHT22;8595;52.542;11.974;2023-11-21T12:40:05;8.00;99.90
16958;DHT22;8595;52.542;11.974;2023-11-21T12:42:32;7.80;99.90
16958;DHT22;8595;52.542;11.974;2023-11-21T12:45:08;7.90;99.90
16958;DHT22;8595;52.542;11.974;2023-11-21T12:47:41;7.70;99.90
16958;DHT22;8595;52.542;11.974;2023-11-21T12:50:08;7.60;99.90
16958;DHT22;8595;52.542;11.974;2023-11-21T12:52:41;7.60;99.90
16958;DHT22;8595;52.542;11.974;2023-11-21T12:55:09;7.50;99.90
16958;DHT22;8595;52.542;11.974;2023-11-21T12:57:41;7.40;99.90
16958;DHT22;8595;52.542;11.974;2023-11-21T13:00:09;7.50;99.90
16958;DHT22;8595;52.542;11.974;2023-11-21T13:02:54;7.50;99.90
16958;DHT22;8595;52.542;11.974;2023-11-21T13:05:29;7.30;99.90
16958;DHT22;8595;52.542;11.974;2023-11-21T13:07:58;7.20;99.90
16958;DHT22;8595;52.542;11.974;2023-11-21T13:10:26;7.10;99.90
16958;DHT22;8595;52.542;11.974;2023-11-21T13:12:56;7.00;99.90
16958;DHT22;8595;52.542;11.974;2023-11-21T13:15:25;7.00;99.90
16958;DHT22;8595;52.542;11.974;2023-11-21T13:17:54;6.90;99.90
16958;DHT22;8595;52.542;11.974;2023-11-21T13:20:23;7.00;99.90
16958;DHT22;8595;52.542;11.974;2023-11-21T13:22:50;7.10;99.90
16958;DHT22;8595;52.542;11.974;2023-11-21T13:25:20;7.20;99.90
16958;DHT22;8595;52.542;11.974;2023-11-21T13:27:47;7.30;99.90
16958;DHT22;8595;52.542;11.974;2023-11-21T13:30:14;7.30;99.90
16958;DHT22;8595;52.542;11.974;2023-11-21T13:32:42;7.30;99.90
16958;DHT22;8595;52.542;11.974;2023-11-21T13:35:11;7.10;99.90
16958;DHT22;8595;52.542;11.974;2023-11-21T13:37:47;7.10;99.90
16958;DHT22;8595;52.542;11.974;2023-11-21T13:40:19;6.90;99.90
16958;DHT22;8595;52.542;11.974;2023-11-21T13:42:49;6.70;99.90
16958;DHT22;8595;52.542;11.974;2023-11-21T13:45:19;6.60;99.90
16958;DHT22;8595;52.542;11.974;2023-11-21T13:47:47;6.80;99.90
16958;DHT22;8595;52.542;11.974;2023-11-21T13:50:18;6.80;99.90
16958;DHT22;8595;52.542;11.974;2023-11-21T13:52:48;6.80;99.90
16958;DHT22;8595;52.542;11.974;2023-11-21T13:55:16;6.90;99.90
16958;DHT22;8595;52.542;11.974;2023-11-21T13:57:43;6.80;99.90
16958;DHT22;8595;52.542;11.974;2023-11-21T14:00:13;6.80;99.90
16958;DHT22;8595;52.542;11.974;2023-11-21T14:05:35;6.50;99.90
16958;DHT22;8595;52.542;11.974;2023-11-21T14:08:01;6.60;99.90
16958;DHT22;8595;52.542;11.974;2023-11-21T14:10:30;6.60;99.90
16958;DHT22;8595;52.542;11.974;2023-11-21T14:13:05;6.60;99.90
16958;DHT22;8595;52.542;11.974;2023-11-21T14:15:32;6.50;99.90
16958;DHT22;8595;52.542;11.974;2023-11-21T14:18:03;6.40;99.90
16958;DHT22;8595;52.542;11.974;2023-11-21T14:20:34;6.50;99.90
16958;DHT22;8595;52.542;11.974;2023-11-21T14:23:02;6.40;99.90
16958;DHT22;8595;52.542;11.974;2023-11-21T14:25:29;6.30;99.90
16958;DHT22;8595;52.542;11.974;2023-11-21T14:27:57;6.20;99.90
16958;DHT22;8595;52.542;11.974;2023-11-21T14:30:24;6.10;99.90
16958;DHT22;8595;52.542;11.974;2023-11-21T14:32:51;6.20;99.90
16958;DHT22;8595;52.542;11.974;2023-11-21T14:35:18;6.10;99.90
16958;DHT22;8595;52.542;11.974;2023-11-21T14:37:46;6.00;99.90
16958;DHT22;8595;52.542;11.974;2023-11-21T14:40:13;5.90;99.90
16958;DHT22;8595;52.542;11.974;2023-11-21T14:42:41;5.80;99.90
16958;DHT22;8595;52.542;11.974;2023-11-21T14:45:10;5.80;99.90
16958;DHT22;8595;52.542;11.974;2023-11-21T14:47:38;5.90;99.90
16958;DHT22;8595;52.542;11.974;2023-11-21T14:50:10;5.90;99.90
16958;DHT22;8595;52.542;11.974;2023-11-21T14:52:56;6.00;99.90
16958;DHT22;8595;52.542;11.974;2023-11-21T14:55:24;5.90;99.90
16958;DHT22;8595;52.542;11.974;2023-11-21T14:57:57;5.80;99.90
16958;DHT22;8595;52.542;11.974;2023-11-21T15:00:27;5.80;99.90
16958;DHT22;8595;52.542;11.974;2023-11-21T15:03:10;5.70;99.90
16958;DHT22;8595;52.542;11.974;2023-11-21T15:05:43;5.50;99.90
16958;DHT22;8595;52.542;11.974;2023-11-21T15:08:11;5.40;99.90
16958;DHT22;8595;52.542;11.974;2023-11-21T15:10:49;5.50;99.90
16958;DHT22;8595;52.542;11.974;2023-11-21T15:13:19;5.50;99.90
16958;DHT22;8595;52.542;11.974;2023-11-21T15:15:45;5.60;99.90
16958;DHT22;8595;52.542;11.974;2023-11-21T15:18:12;5.70;99.90
16958;DHT22;8595;52.542;11.974;2023-11-21T15:20:39;5.70;99.90
16958;DHT22;8595;52.542;11.974;2023-11-21T15:23:06;5.70;99.90
16958;DHT22;8595;52.542;11.974;2023-11-21T15:25:35;5.80;99.90
16958;DHT22;8595;52.542;11.974;2023-11-21T15:28:02;5.70;99.90
16958;DHT22;8595;52.542;11.974;2023-11-21T15:30:30;5.80;99.90
16958;DHT22;8595;52.542;11.974;2023-11-21T15:32:57;5.80;99.90
16958;DHT22;8595;52.542;11.974;2023-11-21T15:35:24;5.70;99.90
16958;DHT22;8595;52.542;11.974;2023-11-21T15:37:52;5.60;99.90
16958;DHT22;8595;52.542;11.974;2023-11-21T15:40:19;5.70;99.90
16958;DHT22;8595;52.542;11.974;2023-11-21T15:42:47;5.60;99.90
16958;DHT22;8595;52.542;11.974;2023-11-21T15:45:15;5.50;99.90
16958;DHT22;8595;52.542;11.974;2023-11-21T15:47:44;5.40;99.90
16958;DHT22;8595;52.542;11.974;2023-11-21T15:50:11;5.30;99.90
16958;DHT22;8595;52.542;11.974;2023-11-21T15:52:39;5.20;99.90
16958;DHT22;8595;52.542;11.974;2023-11-21T15:55:06;5.20;99.90
16958;DHT22;8595;52.542;11.974;2023-11-21T15:57:34;5.20;99.90